Center Point, Texas
Current Conditions -  °F | °C
As of 8:35 PM on Sunday 21 Dec 2014 (Local Time) from KERV Reporting Station
Overcast Overcast  
Wind Chill: 51°   Ceiling: 1000
Heat Index: 51°   Visibility: 10mi
Dew Point: 48°   Wind: 12mph
Humidity: 90%   Direction: 180°S
Pressure: 29.87"   Gusts: NA
Location:  29.94°N, 99.04°W
Report Text: KERV 220235Z AUTO 18010KT 10SM OVC010 11/09 A2987 RMK AO2 T01060090
Loading
Personal Weather Stations






























Interactive Weather Map New forecast layout! Learn more

10-Day Weather Forecast

Advertisements
Track Severe Weather on mobile